createdAt,value
2022-10-10T00:01:34.835Z,99.90
2022-10-10T00:04:03.144Z,99.90
2022-10-10T00:06:32.967Z,99.90
2022-10-10T00:09:00.660Z,99.90
2022-10-10T00:11:27.418Z,99.90
2022-10-10T00:13:54.503Z,99.90
2022-10-10T00:16:21.378Z,99.90
2022-10-10T00:18:48.498Z,99.90
2022-10-10T00:21:15.918Z,99.90
2022-10-10T00:23:42.890Z,99.90
2022-10-10T00:26:12.695Z,99.90
2022-10-10T00:28:43.035Z,99.90
2022-10-10T00:31:10.360Z,99.90
2022-10-10T00:33:37.903Z,99.90
2022-10-10T00:36:05.881Z,99.90
2022-10-10T00:38:32.759Z,99.90
2022-10-10T00:40:59.634Z,99.90
2022-10-10T00:43:27.981Z,99.90
2022-10-10T00:45:55.184Z,99.90
2022-10-10T00:48:32.470Z,99.90
2022-10-10T00:51:03.910Z,99.90
2022-10-10T00:53:36.170Z,99.90
2022-10-10T00:56:04.012Z,99.90
2022-10-10T00:58:31.626Z,99.90
2022-10-10T01:00:58.565Z,99.90
2022-10-10T01:03:25.957Z,99.90
2022-10-10T01:05:52.908Z,99.90
2022-10-10T01:08:20.993Z,99.90
2022-10-10T01:11:28.539Z,99.90
2022-10-10T01:14:35.477Z,99.90
2022-10-10T01:17:16.615Z,99.90
2022-10-10T01:20:07.414Z,99.90
2022-10-10T01:22:36.899Z,99.90
2022-10-10T01:25:25.223Z,99.90
2022-10-10T01:28:02.816Z,99.90
2022-10-10T01:30:31.009Z,99.90
2022-10-10T01:33:13.216Z,99.90
2022-10-10T01:35:50.738Z,99.90
2022-10-10T01:38:35.616Z,99.90
2022-10-10T01:41:10.510Z,99.90
2022-10-10T01:43:37.907Z,99.90
2022-10-10T01:46:13.226Z,99.90
2022-10-10T01:48:40.782Z,99.90
2022-10-10T01:51:45.354Z,99.90
2022-10-10T01:54:39.767Z,99.90
2022-10-10T01:57:31.389Z,99.90
2022-10-10T02:00:11.436Z,99.90
2022-10-10T02:02:51.759Z,99.90
2022-10-10T02:05:27.877Z,99.90
2022-10-10T02:08:00.081Z,99.90
2022-10-10T02:10:33.955Z,99.90
2022-10-10T02:13:02.939Z,99.90
2022-10-10T02:15:38.437Z,99.90
2022-10-10T02:18:07.384Z,99.90
2022-10-10T02:20:34.879Z,99.90
2022-10-10T02:23:02.073Z,99.90
2022-10-10T02:25:33.190Z,99.90
2022-10-10T02:28:16.497Z,99.90
2022-10-10T02:30:46.861Z,99.90
2022-10-10T02:33:25.779Z,99.90
2022-10-10T02:35:54.268Z,99.90
2022-10-10T02:38:22.668Z,99.90
2022-10-10T02:40:50.213Z,99.90
2022-10-10T02:43:18.520Z,99.90
2022-10-10T02:45:45.438Z,99.90
2022-10-10T02:48:12.240Z,99.90
2022-10-10T02:50:39.046Z,99.90
2022-10-10T02:53:05.817Z,99.90
2022-10-10T02:55:32.560Z,99.90
2022-10-10T02:57:59.288Z,99.90
2022-10-10T03:00:26.073Z,99.90
2022-10-10T03:02:53.188Z,99.90
2022-10-10T03:05:20.272Z,99.90
2022-10-10T03:07:47.009Z,99.90
2022-10-10T03:10:13.768Z,99.90
2022-10-10T03:12:40.594Z,99.90
2022-10-10T03:15:11.377Z,99.90
2022-10-10T03:17:39.304Z,99.90
2022-10-10T03:20:06.833Z,99.90
2022-10-10T03:22:33.710Z,99.90
2022-10-10T03:25:00.558Z,99.90
2022-10-10T03:27:27.326Z,99.90
2022-10-10T03:29:54.186Z,99.90
2022-10-10T03:32:21.389Z,99.90
2022-10-10T03:34:48.111Z,99.90
2022-10-10T03:37:14.819Z,99.90
2022-10-10T03:39:41.558Z,99.90
2022-10-10T03:42:08.375Z,99.90
2022-10-10T03:44:35.071Z,99.90
2022-10-10T03:47:01.808Z,99.90
2022-10-10T03:49:28.567Z,99.90
2022-10-10T03:51:55.551Z,99.90
2022-10-10T03:54:22.297Z,99.90
2022-10-10T03:56:49.222Z,99.90
2022-10-10T03:59:15.935Z,99.90
2022-10-10T04:01:42.816Z,99.90
2022-10-10T04:04:09.908Z,99.90
2022-10-10T04:06:36.715Z,99.90
2022-10-10T04:09:04.371Z,99.90
2022-10-10T04:11:31.228Z,99.90
2022-10-10T04:13:58.050Z,99.90
2022-10-10T04:16:24.823Z,99.90
2022-10-10T04:18:51.546Z,99.90
2022-10-10T04:21:18.353Z,99.90
2022-10-10T04:23:45.047Z,99.90
2022-10-10T04:26:11.839Z,99.90
2022-10-10T04:28:38.700Z,99.90
2022-10-10T04:31:06.174Z,99.90
2022-10-10T04:33:32.936Z,99.90
2022-10-10T04:35:59.787Z,99.90
2022-10-10T04:38:28.324Z,99.90
2022-10-10T04:40:55.010Z,99.90
2022-10-10T04:43:21.828Z,99.90
2022-10-10T04:45:48.651Z,99.90
2022-10-10T04:48:15.429Z,99.90
2022-10-10T04:50:42.898Z,99.90
2022-10-10T04:53:10.484Z,99.90
2022-10-10T04:55:37.216Z,99.90
2022-10-10T04:58:06.897Z,99.90
2022-10-10T05:00:33.683Z,99.90
2022-10-10T05:03:00.435Z,99.90
2022-10-10T05:05:27.204Z,99.90
2022-10-10T05:07:55.619Z,99.90
2022-10-10T05:10:23.688Z,99.90
2022-10-10T05:12:50.771Z,99.90
2022-10-10T05:15:18.183Z,99.90
2022-10-10T05:17:45.328Z,99.90
2022-10-10T05:20:12.065Z,99.90
2022-10-10T05:22:38.883Z,99.90
2022-10-10T05:25:05.991Z,99.90
2022-10-10T05:27:32.762Z,99.90
2022-10-10T05:29:59.529Z,99.90
2022-10-10T05:32:26.313Z,99.90
2022-10-10T05:34:53.000Z,99.90
2022-10-10T05:37:19.783Z,99.90
2022-10-10T05:39:47.740Z,99.90
2022-10-10T05:42:15.928Z,99.90
2022-10-10T05:44:42.757Z,99.90
2022-10-10T05:47:09.579Z,99.90
2022-10-10T05:49:36.535Z,99.90
2022-10-10T05:52:03.373Z,99.90
2022-10-10T05:54:30.151Z,99.90
2022-10-10T05:57:00.095Z,99.90
2022-10-10T05:59:28.791Z,99.90
2022-10-10T06:01:55.975Z,99.90
2022-10-10T06:04:24.528Z,99.90
2022-10-10T06:06:51.293Z,99.90
2022-10-10T06:09:19.554Z,99.90
2022-10-10T06:11:46.275Z,99.90
2022-10-10T06:14:13.331Z,99.90
2022-10-10T06:16:41.574Z,99.90
2022-10-10T06:19:12.550Z,99.90
2022-10-10T06:21:42.811Z,99.90
2022-10-10T06:24:10.859Z,99.90
2022-10-10T06:26:37.729Z,99.90
2022-10-10T06:29:05.165Z,99.90
2022-10-10T06:31:31.997Z,99.90
2022-10-10T06:33:58.793Z,99.90
2022-10-10T06:36:25.505Z,99.90
2022-10-10T06:38:52.228Z,99.90
2022-10-10T06:41:18.994Z,99.90
2022-10-10T06:43:45.794Z,99.90
2022-10-10T06:46:13.291Z,99.90
2022-10-10T06:48:41.566Z,99.90
2022-10-10T06:51:13.590Z,99.90
2022-10-10T06:53:40.521Z,99.90
2022-10-10T06:56:08.128Z,99.90
2022-10-10T06:58:35.719Z,99.90
2022-10-10T07:01:04.595Z,99.90
2022-10-10T07:03:32.931Z,99.90
2022-10-10T07:06:01.410Z,99.90
2022-10-10T07:08:29.208Z,99.90
2022-10-10T07:10:57.038Z,99.90
2022-10-10T07:13:24.797Z,99.90
2022-10-10T07:15:51.831Z,99.90
2022-10-10T07:18:19.507Z,99.90
2022-10-10T07:20:50.522Z,99.90
2022-10-10T07:23:17.495Z,99.90
2022-10-10T07:25:44.342Z,99.90
2022-10-10T07:28:11.559Z,99.90
2022-10-10T07:30:46.232Z,99.90
2022-10-10T07:33:14.210Z,99.90
2022-10-10T07:35:41.443Z,99.90
2022-10-10T07:38:10.285Z,99.90
2022-10-10T07:40:40.436Z,99.90
2022-10-10T07:43:07.203Z,99.90
2022-10-10T07:45:36.836Z,99.90
2022-10-10T07:48:04.328Z,99.90
2022-10-10T07:50:32.632Z,99.90
2022-10-10T07:52:59.327Z,99.90
2022-10-10T07:55:26.382Z,99.90
2022-10-10T07:57:53.661Z,99.90
2022-10-10T08:00:20.641Z,99.90
2022-10-10T08:02:47.588Z,99.90
2022-10-10T08:05:14.347Z,99.90
2022-10-10T08:07:41.145Z,99.90
2022-10-10T08:10:09.778Z,99.90
2022-10-10T08:12:36.583Z,99.90
2022-10-10T08:15:04.923Z,99.90
2022-10-10T08:17:31.708Z,99.90
2022-10-10T08:19:58.469Z,99.90
2022-10-10T08:22:25.558Z,99.90
2022-10-10T08:24:52.281Z,99.90
2022-10-10T08:27:19.856Z,99.90
2022-10-10T08:29:46.865Z,99.90
2022-10-10T08:32:13.962Z,99.90
2022-10-10T08:34:40.671Z,99.90
2022-10-10T08:37:07.418Z,99.90
2022-10-10T08:39:34.143Z,99.90
2022-10-10T08:42:03.397Z,99.90
2022-10-10T08:44:41.356Z,99.90
2022-10-10T08:47:16.500Z,99.90
2022-10-10T08:49:50.866Z,99.90
2022-10-10T08:52:30.662Z,99.90
2022-10-10T08:55:01.562Z,99.90
2022-10-10T08:57:35.623Z,99.90
2022-10-10T09:00:07.330Z,99.90
2022-10-10T09:03:01.056Z,99.90
2022-10-10T09:05:39.937Z,99.90
2022-10-10T09:08:12.939Z,99.90
2022-10-10T09:10:54.483Z,99.90
2022-10-10T09:13:33.342Z,99.90
2022-10-10T09:16:28.089Z,99.90
2022-10-10T09:19:06.115Z,99.90
2022-10-10T09:21:36.675Z,99.90
2022-10-10T09:24:06.690Z,99.90
2022-10-10T09:26:44.401Z,99.90
2022-10-10T09:29:34.476Z,99.90
2022-10-10T09:32:14.227Z,99.90
2022-10-10T09:34:48.665Z,99.90
2022-10-10T09:37:35.518Z,99.90
2022-10-10T09:40:27.254Z,99.90
2022-10-10T09:42:55.780Z,99.90
2022-10-10T09:45:22.549Z,99.90
2022-10-10T09:47:53.515Z,99.90
2022-10-10T09:50:20.669Z,99.90
2022-10-10T09:52:50.426Z,99.90
2022-10-10T09:55:25.255Z,99.90
2022-10-10T09:57:54.524Z,99.90
2022-10-10T10:00:23.727Z,99.90
2022-10-10T10:03:03.927Z,99.90
2022-10-10T10:05:31.066Z,99.90
2022-10-10T10:07:58.631Z,99.90
2022-10-10T10:10:27.568Z,99.90
2022-10-10T10:12:55.627Z,99.90
2022-10-10T10:15:25.557Z,99.90
2022-10-10T10:18:11.405Z,99.90
2022-10-10T10:20:44.049Z,99.90
2022-10-10T10:23:31.219Z,99.90
2022-10-10T10:26:20.605Z,99.90
2022-10-10T10:28:49.317Z,99.90
2022-10-10T10:31:52.734Z,99.90
2022-10-10T10:35:10.848Z,99.90
2022-10-10T10:37:49.459Z,99.90
2022-10-10T10:40:31.833Z,99.90
2022-10-10T10:43:04.709Z,99.90
2022-10-10T10:45:57.280Z,99.90
2022-10-10T10:48:33.966Z,99.90
2022-10-10T10:51:18.920Z,99.90
2022-10-10T10:54:02.386Z,99.90
2022-10-10T10:56:40.776Z,99.90
2022-10-10T11:00:25.875Z,99.90
2022-10-10T11:02:54.780Z,99.90
2022-10-10T11:05:40.883Z,99.90
2022-10-10T11:08:36.972Z,99.90
2022-10-10T11:11:10.453Z,99.90
2022-10-10T11:13:49.779Z,99.90
2022-10-10T11:16:48.909Z,99.90
2022-10-10T11:19:32.314Z,99.90
2022-10-10T11:22:18.442Z,99.90
2022-10-10T11:24:53.627Z,99.90
2022-10-10T11:27:20.393Z,99.90
2022-10-10T11:30:07.809Z,99.90
2022-10-10T11:32:53.683Z,99.90
2022-10-10T11:35:30.371Z,99.90
2022-10-10T11:38:17.332Z,99.90
2022-10-10T11:41:13.752Z,99.90
2022-10-10T11:44:01.955Z,99.90
2022-10-10T11:46:39.405Z,99.90
2022-10-10T11:49:12.536Z,99.90
2022-10-10T11:52:15.094Z,99.90
2022-10-10T11:55:03.901Z,99.90
2022-10-10T11:57:34.201Z,99.90
2022-10-10T12:00:10.429Z,99.90
2022-10-10T12:02:40.438Z,99.90
2022-10-10T12:05:28.300Z,99.90
2022-10-10T12:07:58.211Z,99.90
2022-10-10T12:10:54.075Z,99.90
2022-10-10T12:13:49.081Z,99.90
2022-10-10T12:16:20.080Z,99.90
2022-10-10T12:18:56.265Z,99.90
2022-10-10T12:21:26.240Z,99.90
2022-10-10T12:24:11.096Z,99.90
2022-10-10T12:27:07.633Z,99.90
2022-10-10T12:30:09.585Z,99.90
2022-10-10T12:32:37.473Z,99.90
2022-10-10T12:35:36.469Z,99.90
2022-10-10T12:38:12.471Z,99.90
2022-10-10T12:40:57.601Z,99.90
2022-10-10T12:43:36.398Z,99.90
2022-10-10T12:46:19.793Z,99.90
2022-10-10T12:48:59.257Z,99.90
2022-10-10T12:51:26.595Z,99.90
2022-10-10T12:53:56.674Z,99.90
2022-10-10T12:56:42.389Z,99.90
2022-10-10T12:59:22.288Z,99.90
2022-10-10T13:02:10.325Z,99.90
2022-10-10T13:04:40.819Z,99.90
2022-10-10T13:07:07.973Z,99.90
2022-10-10T13:09:36.014Z,99.90
2022-10-10T13:12:05.838Z,99.90
2022-10-10T13:14:43.728Z,99.90
2022-10-10T13:17:23.915Z,99.90
2022-10-10T13:19:51.888Z,99.90
2022-10-10T13:22:19.322Z,99.60
2022-10-10T13:24:47.834Z,99.90
2022-10-10T13:27:28.053Z,99.90
2022-10-10T13:29:55.828Z,99.90
2022-10-10T13:32:33.421Z,99.90
2022-10-10T13:35:05.276Z,99.90
2022-10-10T13:37:32.345Z,99.90
2022-10-10T13:40:00.075Z,99.90
2022-10-10T13:42:31.944Z,99.90
2022-10-10T13:45:00.543Z,99.90
2022-10-10T13:47:52.587Z,99.90
2022-10-10T13:50:22.347Z,99.90
2022-10-10T13:52:49.194Z,99.90
2022-10-10T13:55:27.289Z,99.90
2022-10-10T13:57:58.248Z,99.90
2022-10-10T14:00:30.543Z,99.90
2022-10-10T14:02:57.402Z,99.90
2022-10-10T14:05:31.515Z,99.50
2022-10-10T14:07:59.094Z,98.90
2022-10-10T14:10:29.322Z,98.80
2022-10-10T14:13:00.564Z,97.80
2022-10-10T14:15:42.234Z,96.80
2022-10-10T14:18:14.720Z,95.90
2022-10-10T14:20:41.687Z,96.80
2022-10-10T14:23:08.751Z,95.90
2022-10-10T14:25:38.670Z,96.30
2022-10-10T14:28:05.802Z,97.80
2022-10-10T14:30:32.675Z,98.20
2022-10-10T14:32:59.470Z,96.80
2022-10-10T14:35:26.538Z,96.80
2022-10-10T14:37:53.290Z,96.90
2022-10-10T14:40:22.265Z,97.30
2022-10-10T14:42:49.160Z,97.30
2022-10-10T14:45:17.546Z,96.00
2022-10-10T14:47:44.588Z,95.60
2022-10-10T14:50:18.525Z,95.80
2022-10-10T14:52:45.373Z,95.30
2022-10-10T14:55:13.301Z,96.70
2022-10-10T14:57:40.310Z,98.30
2022-10-10T15:00:14.329Z,99.90
2022-10-10T15:02:45.412Z,99.90
2022-10-10T15:05:13.606Z,99.90
2022-10-10T15:07:40.843Z,99.10
2022-10-10T15:10:38.123Z,97.80
2022-10-10T15:12:55.778Z,97.00
2022-10-10T15:15:22.508Z,97.20
2022-10-10T15:17:49.976Z,97.60
2022-10-10T15:20:16.824Z,96.10
2022-10-10T15:22:45.368Z,96.20
2022-10-10T15:25:12.620Z,96.00
2022-10-10T15:27:39.574Z,96.90
2022-10-10T15:30:07.127Z,96.40
2022-10-10T15:32:36.965Z,96.60
2022-10-10T15:35:04.425Z,96.70
2022-10-10T15:37:31.359Z,96.20
2022-10-10T15:39:58.126Z,96.10
2022-10-10T15:42:24.977Z,95.80
2022-10-10T15:44:52.216Z,95.20
2022-10-10T15:47:20.126Z,95.60
2022-10-10T15:49:47.482Z,96.60
2022-10-10T15:52:14.484Z,96.90
2022-10-10T15:54:41.586Z,97.80
2022-10-10T15:57:08.566Z,98.80
2022-10-10T15:59:37.924Z,97.20
2022-10-10T16:02:07.507Z,97.10
2022-10-10T16:04:34.270Z,96.20
2022-10-10T16:09:47.645Z,97.60
2022-10-10T16:12:14.457Z,98.00
2022-10-10T16:14:41.164Z,98.50
2022-10-10T16:17:07.891Z,97.90
2022-10-10T16:19:34.691Z,97.80
2022-10-10T16:22:01.436Z,98.10
2022-10-10T16:24:28.269Z,98.60
2022-10-10T16:26:55.096Z,99.20
2022-10-10T16:29:22.336Z,99.10
2022-10-10T16:31:49.079Z,99.60
2022-10-10T16:34:17.337Z,99.20
2022-10-10T16:36:44.078Z,99.50
2022-10-10T16:39:12.534Z,99.80
2022-10-10T16:41:48.522Z,99.70
2022-10-10T16:44:16.962Z,99.50
2022-10-10T16:46:43.932Z,99.60
2022-10-10T16:49:12.866Z,99.50
2022-10-10T16:51:39.638Z,99.90
2022-10-10T16:54:06.563Z,99.90
2022-10-10T16:56:34.156Z,99.90
2022-10-10T16:59:01.788Z,99.90
2022-10-10T17:01:29.123Z,99.90
2022-10-10T17:03:59.152Z,99.90
2022-10-10T17:06:29.003Z,99.90
2022-10-10T17:09:03.802Z,99.90
2022-10-10T17:11:30.509Z,99.90
2022-10-10T17:13:58.128Z,99.90
2022-10-10T17:19:19.223Z,99.90
2022-10-10T17:21:46.015Z,99.90
2022-10-10T17:24:13.286Z,99.90
2022-10-10T17:26:40.136Z,99.90
2022-10-10T17:29:07.951Z,99.90
2022-10-10T17:31:36.255Z,99.90
2022-10-10T17:34:03.056Z,99.90
2022-10-10T17:36:29.855Z,99.90
2022-10-10T17:38:57.368Z,99.90
2022-10-10T17:41:24.338Z,99.90
2022-10-10T17:43:51.484Z,99.90
2022-10-10T17:46:36.196Z,99.90
2022-10-10T17:49:08.258Z,99.90
2022-10-10T17:51:36.425Z,99.90
2022-10-10T17:54:04.474Z,99.90
2022-10-10T17:56:31.862Z,99.90
2022-10-10T17:59:02.422Z,99.90
2022-10-10T18:01:30.836Z,99.90
2022-10-10T18:03:58.571Z,99.90
2022-10-10T18:06:26.230Z,99.90
2022-10-10T18:08:54.157Z,99.90
2022-10-10T18:11:23.577Z,99.90
2022-10-10T18:13:50.979Z,99.90
2022-10-10T18:16:22.397Z,99.90
2022-10-10T18:18:51.934Z,99.90
2022-10-10T18:21:21.169Z,99.90
2022-10-10T18:23:48.740Z,99.90
2022-10-10T18:26:21.711Z,99.90
2022-10-10T18:28:49.831Z,99.90
2022-10-10T18:31:19.260Z,99.90
2022-10-10T18:33:46.573Z,99.90
2022-10-10T18:36:20.572Z,99.90
2022-10-10T18:38:47.596Z,99.90
2022-10-10T18:41:20.067Z,99.90
2022-10-10T18:43:47.251Z,99.90
2022-10-10T18:46:16.802Z,99.90
2022-10-10T18:48:44.461Z,99.90
2022-10-10T18:51:26.160Z,99.90
2022-10-10T18:53:58.104Z,99.90
2022-10-10T18:56:25.022Z,99.90
2022-10-10T18:58:55.823Z,99.90
2022-10-10T19:01:26.141Z,99.90
2022-10-10T19:03:54.004Z,99.90
2022-10-10T19:06:22.713Z,99.90
2022-10-10T19:08:57.266Z,99.90
2022-10-10T19:11:32.789Z,99.90
2022-10-10T19:14:02.986Z,99.90
2022-10-10T19:16:30.968Z,99.90
2022-10-10T19:18:59.587Z,99.90
2022-10-10T19:21:28.086Z,99.90
2022-10-10T19:23:54.915Z,99.90
2022-10-10T19:26:21.977Z,99.90
2022-10-10T19:28:48.884Z,99.90
2022-10-10T19:31:17.570Z,99.90
2022-10-10T19:33:45.435Z,99.90
2022-10-10T19:36:13.412Z,99.90
2022-10-10T19:38:41.491Z,99.90
2022-10-10T19:41:12.900Z,99.90
2022-10-10T19:43:43.555Z,99.90
2022-10-10T19:46:13.085Z,99.90
2022-10-10T19:48:40.416Z,99.90
2022-10-10T19:51:10.210Z,99.90
2022-10-10T19:53:38.112Z,99.90
2022-10-10T19:56:07.638Z,99.90
2022-10-10T19:58:35.885Z,99.90
2022-10-10T20:01:17.003Z,99.90
2022-10-10T20:03:44.756Z,99.90
2022-10-10T20:06:12.229Z,99.90
2022-10-10T20:08:39.087Z,99.90
2022-10-10T20:11:06.097Z,99.90
2022-10-10T20:13:32.946Z,99.90
2022-10-10T20:16:03.837Z,99.90
2022-10-10T20:18:33.872Z,99.90
2022-10-10T20:21:01.136Z,99.90
2022-10-10T20:23:28.171Z,99.90
2022-10-10T20:25:54.940Z,99.90
2022-10-10T20:28:22.720Z,99.90
2022-10-10T20:30:54.315Z,99.90
2022-10-10T20:33:21.498Z,99.90
2022-10-10T20:35:53.658Z,99.90
2022-10-10T20:38:22.952Z,99.90
2022-10-10T20:40:49.778Z,99.90
2022-10-10T20:43:16.510Z,99.90
2022-10-10T20:45:43.279Z,99.90
2022-10-10T20:48:10.088Z,99.90
2022-10-10T20:50:37.771Z,99.90
2022-10-10T20:53:05.860Z,99.90
2022-10-10T20:55:35.443Z,99.90
2022-10-10T20:58:03.111Z,99.90
2022-10-10T21:00:29.915Z,99.90
2022-10-10T21:02:57.028Z,99.90
2022-10-10T21:05:24.090Z,99.90
2022-10-10T21:07:51.007Z,99.90
2022-10-10T21:10:18.155Z,99.90
2022-10-10T21:12:45.445Z,99.90
2022-10-10T21:15:12.303Z,99.90
2022-10-10T21:17:39.175Z,99.90
2022-10-10T21:20:06.415Z,99.90
2022-10-10T21:22:33.292Z,99.90
2022-10-10T21:25:00.087Z,99.90
2022-10-10T21:27:26.912Z,99.90
2022-10-10T21:29:53.719Z,99.90
2022-10-10T21:32:22.823Z,99.90
2022-10-10T21:34:54.362Z,99.90
2022-10-10T21:37:23.308Z,99.90
2022-10-10T21:39:50.096Z,99.90
2022-10-10T21:42:16.946Z,99.90
2022-10-10T21:44:44.485Z,99.90
2022-10-10T21:47:11.299Z,99.90
2022-10-10T21:49:38.006Z,99.90
2022-10-10T21:52:05.080Z,99.90
2022-10-10T21:54:31.819Z,99.90
2022-10-10T21:56:58.617Z,99.90
2022-10-10T21:59:26.471Z,99.90
2022-10-10T22:01:53.207Z,99.90
2022-10-10T22:04:21.500Z,99.90
2022-10-10T22:06:50.276Z,99.90
2022-10-10T22:09:17.088Z,99.90
2022-10-10T22:11:44.069Z,99.90
2022-10-10T22:14:10.883Z,99.90
2022-10-10T22:16:39.163Z,99.90
2022-10-10T22:19:06.006Z,99.90
2022-10-10T22:21:35.094Z,99.90
2022-10-10T22:24:06.063Z,99.90
2022-10-10T22:26:33.828Z,99.90
2022-10-10T22:29:00.872Z,99.90
2022-10-10T22:31:30.181Z,99.90
2022-10-10T22:33:57.650Z,99.90
2022-10-10T22:36:25.123Z,99.90
2022-10-10T22:38:51.893Z,99.90
2022-10-10T22:41:18.665Z,99.90
2022-10-10T22:43:45.417Z,99.90
2022-10-10T22:46:12.123Z,99.90
2022-10-10T22:48:39.182Z,99.90
2022-10-10T22:51:12.151Z,99.90
2022-10-10T22:53:39.566Z,99.90
2022-10-10T22:56:08.876Z,99.90
2022-10-10T22:58:35.933Z,99.90
2022-10-10T23:01:07.861Z,99.90
2022-10-10T23:03:34.758Z,99.90
2022-10-10T23:06:03.513Z,99.90
2022-10-10T23:08:31.662Z,99.90
2022-10-10T23:10:59.900Z,99.90
2022-10-10T23:13:26.977Z,99.90
2022-10-10T23:15:54.068Z,99.90
2022-10-10T23:18:21.030Z,99.90
2022-10-10T23:20:48.801Z,99.90
2022-10-10T23:23:18.128Z,99.90
2022-10-10T23:25:46.506Z,99.90
2022-10-10T23:28:14.697Z,99.90
2022-10-10T23:30:43.016Z,99.90
2022-10-10T23:33:10.211Z,99.90
2022-10-10T23:35:37.178Z,99.90
2022-10-10T23:38:05.572Z,99.90
2022-10-10T23:40:33.838Z,99.90
2022-10-10T23:43:00.674Z,99.90
2022-10-10T23:45:27.436Z,99.90
2022-10-10T23:47:54.298Z,99.90
2022-10-10T23:50:21.097Z,99.90
2022-10-10T23:52:47.850Z,99.90
2022-10-10T23:55:14.698Z,99.90
2022-10-10T23:57:41.493Z,99.90
